sensor_id;sensor_type;location;lat;lon;timestamp;temperature;humidity
56256;DHT22;57229;51.432;-2.598;2023-11-22T00:00:54;5.80;99.90
56256;DHT22;57229;51.432;-2.598;2023-11-22T00:03:20;5.00;99.90
56256;DHT22;57229;51.432;-2.598;2023-11-22T00:05:45;5.10;99.90
56256;DHT22;57229;51.432;-2.598;2023-11-22T00:08:12;5.10;99.90
56256;DHT22;57229;51.432;-2.598;2023-11-22T00:10:38;5.10;99.90
56256;DHT22;57229;51.432;-2.598;2023-11-22T00:13:03;5.10;99.90
56256;DHT22;57229;51.432;-2.598;2023-11-22T00:15:29;5.10;99.90
56256;DHT22;57229;51.432;-2.598;2023-11-22T00:17:54;5.10;99.90
56256;DHT22;57229;51.432;-2.598;2023-11-22T00:20:23;5.10;99.90
56256;DHT22;57229;51.432;-2.598;2023-11-22T00:22:48;5.40;99.90
56256;DHT22;57229;51.432;-2.598;2023-11-22T00:25:15;5.30;99.90
56256;DHT22;57229;51.432;-2.598;2023-11-22T00:27:41;5.30;99.90
56256;DHT22;57229;51.432;-2.598;2023-11-22T00:30:07;5.30;99.90
56256;DHT22;57229;51.432;-2.598;2023-11-22T00:32:34;5.30;99.90
56256;DHT22;57229;51.432;-2.598;2023-11-22T00:35:00;5.30;99.90
56256;DHT22;57229;51.432;-2.598;2023-11-22T00:37:25;5.40;99.90
56256;DHT22;57229;51.432;-2.598;2023-11-22T00:39:51;5.70;99.90
56256;DHT22;57229;51.432;-2.598;2023-11-22T00:42:17;5.40;99.90
56256;DHT22;57229;51.432;-2.598;2023-11-22T00:44:45;5.50;99.90
56256;DHT22;57229;51.432;-2.598;2023-11-22T00:47:11;5.50;99.90
56256;DHT22;57229;51.432;-2.598;2023-11-22T00:49:37;5.50;99.90
56256;DHT22;57229;51.432;-2.598;2023-11-22T00:52:02;6.00;99.90
56256;DHT22;57229;51.432;-2.598;2023-11-22T00:54:28;5.60;99.90
56256;DHT22;57229;51.432;-2.598;2023-11-22T00:56:53;5.60;99.90
56256;DHT22;57229;51.432;-2.598;2023-11-22T00:59:19;5.60;99.90
56256;DHT22;57229;51.432;-2.598;2023-11-22T01:01:45;5.80;99.90
56256;DHT22;57229;51.432;-2.598;2023-11-22T01:04:11;6.30;99.90
56256;DHT22;57229;51.432;-2.598;2023-11-22T01:06:37;5.60;99.90
56256;DHT22;57229;51.432;-2.598;2023-11-22T01:09:03;5.60;99.90
56256;DHT22;57229;51.432;-2.598;2023-11-22T01:11:29;5.60;99.90
56256;DHT22;57229;51.432;-2.598;2023-11-22T01:13:55;5.60;99.90
56256;DHT22;57229;51.432;-2.598;2023-11-22T01:16:20;5.70;99.90
56256;DHT22;57229;51.432;-2.598;2023-11-22T01:18:46;5.70;99.90
56256;DHT22;57229;51.432;-2.598;2023-11-22T01:21:12;5.70;99.90
56256;DHT22;57229;51.432;-2.598;2023-11-22T01:23:38;6.80;99.90
56256;DHT22;57229;51.432;-2.598;2023-11-22T01:26:03;5.80;99.90
56256;DHT22;57229;51.432;-2.598;2023-11-22T01:28:30;5.80;99.90
56256;DHT22;57229;51.432;-2.598;2023-11-22T01:31:00;5.80;99.90
56256;DHT22;57229;51.432;-2.598;2023-11-22T01:33:26;5.80;99.90
56256;DHT22;57229;51.432;-2.598;2023-11-22T01:35:52;5.80;99.90
56256;DHT22;57229;51.432;-2.598;2023-11-22T01:38:18;5.80;99.90
56256;DHT22;57229;51.432;-2.598;2023-11-22T01:40:47;5.90;99.90
56256;DHT22;57229;51.432;-2.598;2023-11-22T01:43:21;5.90;99.90
56256;DHT22;57229;51.432;-2.598;2023-11-22T01:45:49;5.80;99.90
56256;DHT22;57229;51.432;-2.598;2023-11-22T01:48:15;5.90;99.90
56256;DHT22;57229;51.432;-2.598;2023-11-22T01:50:42;6.00;99.90
56256;DHT22;57229;51.432;-2.598;2023-11-22T01:53:11;5.90;99.90
56256;DHT22;57229;51.432;-2.598;2023-11-22T01:55:38;5.90;99.90
56256;DHT22;57229;51.432;-2.598;2023-11-22T01:58:04;5.90;99.90
56256;DHT22;57229;51.432;-2.598;2023-11-22T02:00:51;6.00;99.90
56256;DHT22;57229;51.432;-2.598;2023-11-22T02:03:17;6.00;99.90
56256;DHT22;57229;51.432;-2.598;2023-11-22T02:05:43;6.00;99.90
56256;DHT22;57229;51.432;-2.598;2023-11-22T02:08:10;6.50;99.90
56256;DHT22;57229;51.432;-2.598;2023-11-22T02:10:36;6.00;99.90
56256;DHT22;57229;51.432;-2.598;2023-11-22T02:13:05;6.10;99.90
56256;DHT22;57229;51.432;-2.598;2023-11-22T02:15:34;6.10;99.90
56256;DHT22;57229;51.432;-2.598;2023-11-22T02:18:00;6.20;99.90
56256;DHT22;57229;51.432;-2.598;2023-11-22T02:20:26;5.90;99.90
56256;DHT22;57229;51.432;-2.598;2023-11-22T02:22:52;6.50;99.90
56256;DHT22;57229;51.432;-2.598;2023-11-22T02:25:18;6.20;99.90
56256;DHT22;57229;51.432;-2.598;2023-11-22T02:27:44;5.80;99.90
56256;DHT22;57229;51.432;-2.598;2023-11-22T02:30:10;6.40;99.90
56256;DHT22;57229;51.432;-2.598;2023-11-22T02:32:36;5.90;99.90
56256;DHT22;57229;51.432;-2.598;2023-11-22T02:35:02;5.90;99.90
56256;DHT22;57229;51.432;-2.598;2023-11-22T02:37:32;5.90;99.90
56256;DHT22;57229;51.432;-2.598;2023-11-22T02:40:05;6.20;99.90
56256;DHT22;57229;51.432;-2.598;2023-11-22T02:42:31;6.00;99.90
56256;DHT22;57229;51.432;-2.598;2023-11-22T02:44:56;6.10;99.90
56256;DHT22;57229;51.432;-2.598;2023-11-22T02:47:22;6.00;99.90
56256;DHT22;57229;51.432;-2.598;2023-11-22T02:49:48;6.00;99.90
56256;DHT22;57229;51.432;-2.598;2023-11-22T02:52:14;6.00;99.90
56256;DHT22;57229;51.432;-2.598;2023-11-22T02:54:43;6.10;99.90
56256;DHT22;57229;51.432;-2.598;2023-11-22T02:57:09;6.10;99.90
56256;DHT22;57229;51.432;-2.598;2023-11-22T02:59:34;6.10;99.90
56256;DHT22;57229;51.432;-2.598;2023-11-22T03:02:00;6.20;99.90
56256;DHT22;57229;51.432;-2.598;2023-11-22T03:04:27;6.10;99.90
56256;DHT22;57229;51.432;-2.598;2023-11-22T03:06:54;6.10;99.90
56256;DHT22;57229;51.432;-2.598;2023-11-22T03:09:20;6.00;99.90
56256;DHT22;57229;51.432;-2.598;2023-11-22T03:11:48;6.00;99.90
56256;DHT22;57229;51.432;-2.598;2023-11-22T03:14:13;6.10;99.90
56256;DHT22;57229;51.432;-2.598;2023-11-22T03:16:41;6.10;99.90
56256;DHT22;57229;51.432;-2.598;2023-11-22T03:19:08;6.10;99.90
56256;DHT22;57229;51.432;-2.598;2023-11-22T03:21:33;6.80;99.90
56256;DHT22;57229;51.432;-2.598;2023-11-22T03:24:01;6.10;99.90
56256;DHT22;57229;51.432;-2.598;2023-11-22T03:26:29;6.10;99.90
56256;DHT22;57229;51.432;-2.598;2023-11-22T03:28:55;6.20;99.90
56256;DHT22;57229;51.432;-2.598;2023-11-22T03:31:20;6.20;99.90
56256;DHT22;57229;51.432;-2.598;2023-11-22T03:33:47;6.30;99.90
56256;DHT22;57229;51.432;-2.598;2023-11-22T03:36:12;6.20;99.90
56256;DHT22;57229;51.432;-2.598;2023-11-22T03:38:41;6.30;99.90
56256;DHT22;57229;51.432;-2.598;2023-11-22T03:41:06;6.30;99.90
56256;DHT22;57229;51.432;-2.598;2023-11-22T03:43:32;6.30;99.90
56256;DHT22;57229;51.432;-2.598;2023-11-22T03:45:58;7.20;99.90
56256;DHT22;57229;51.432;-2.598;2023-11-22T03:48:23;6.30;99.90
56256;DHT22;57229;51.432;-2.598;2023-11-22T03:50:51;6.40;99.90
56256;DHT22;57229;51.432;-2.598;2023-11-22T03:53:17;6.30;99.90
56256;DHT22;57229;51.432;-2.598;2023-11-22T03:55:42;6.30;99.90
56256;DHT22;57229;51.432;-2.598;2023-11-22T03:58:08;6.30;99.90
56256;DHT22;57229;51.432;-2.598;2023-11-22T04:00:34;6.30;99.90
56256;DHT22;57229;51.432;-2.598;2023-11-22T04:03:00;6.30;99.90
56256;DHT22;57229;51.432;-2.598;2023-11-22T04:05:27;6.50;99.90
56256;DHT22;57229;51.432;-2.598;2023-11-22T04:07:53;6.30;99.90
56256;DHT22;57229;51.432;-2.598;2023-11-22T04:10:19;6.30;99.90
56256;DHT22;57229;51.432;-2.598;2023-11-22T04:12:46;6.80;99.90
56256;DHT22;57229;51.432;-2.598;2023-11-22T04:15:13;6.20;99.90
56256;DHT22;57229;51.432;-2.598;2023-11-22T04:17:39;6.20;99.90
56256;DHT22;57229;51.432;-2.598;2023-11-22T04:20:07;6.20;99.90
56256;DHT22;57229;51.432;-2.598;2023-11-22T04:22:43;6.20;99.90
56256;DHT22;57229;51.432;-2.598;2023-11-22T04:25:11;6.30;99.90
56256;DHT22;57229;51.432;-2.598;2023-11-22T04:27:39;6.20;99.90
56256;DHT22;57229;51.432;-2.598;2023-11-22T04:30:06;6.20;99.90
56256;DHT22;57229;51.432;-2.598;2023-11-22T04:32:39;6.30;99.90
56256;DHT22;57229;51.432;-2.598;2023-11-22T04:35:06;6.30;99.90
56256;DHT22;57229;51.432;-2.598;2023-11-22T04:37:31;6.30;99.90
56256;DHT22;57229;51.432;-2.598;2023-11-22T04:39:58;6.30;99.90
56256;DHT22;57229;51.432;-2.598;2023-11-22T04:42:24;6.30;99.90
56256;DHT22;57229;51.432;-2.598;2023-11-22T04:44:50;6.30;99.90
56256;DHT22;57229;51.432;-2.598;2023-11-22T04:47:15;6.20;99.90
56256;DHT22;57229;51.432;-2.598;2023-11-22T04:49:41;6.20;99.90
56256;DHT22;57229;51.432;-2.598;2023-11-22T04:52:06;6.20;99.90
56256;DHT22;57229;51.432;-2.598;2023-11-22T04:54:33;6.20;99.90
56256;DHT22;57229;51.432;-2.598;2023-11-22T04:56:59;6.20;99.90
56256;DHT22;57229;51.432;-2.598;2023-11-22T04:59:25;6.20;99.90
56256;DHT22;57229;51.432;-2.598;2023-11-22T05:01:50;6.20;99.90
56256;DHT22;57229;51.432;-2.598;2023-11-22T05:04:16;6.30;99.90
56256;DHT22;57229;51.432;-2.598;2023-11-22T05:06:43;6.30;99.90
56256;DHT22;57229;51.432;-2.598;2023-11-22T05:09:09;6.30;99.90
56256;DHT22;57229;51.432;-2.598;2023-11-22T05:11:36;6.30;99.90
56256;DHT22;57229;51.432;-2.598;2023-11-22T05:14:02;6.50;99.90
56256;DHT22;57229;51.432;-2.598;2023-11-22T05:16:27;6.30;99.90
56256;DHT22;57229;51.432;-2.598;2023-11-22T05:18:53;6.70;99.90
56256;DHT22;57229;51.432;-2.598;2023-11-22T05:21:18;6.30;99.90
56256;DHT22;57229;51.432;-2.598;2023-11-22T05:23:44;6.30;99.90
56256;DHT22;57229;51.432;-2.598;2023-11-22T05:26:10;6.30;99.90
56256;DHT22;57229;51.432;-2.598;2023-11-22T05:28:36;6.30;99.90
56256;DHT22;57229;51.432;-2.598;2023-11-22T05:31:01;6.30;99.90
56256;DHT22;57229;51.432;-2.598;2023-11-22T05:33:27;6.30;99.90
56256;DHT22;57229;51.432;-2.598;2023-11-22T05:35:52;6.20;99.90
56256;DHT22;57229;51.432;-2.598;2023-11-22T05:38:19;6.20;99.90
56256;DHT22;57229;51.432;-2.598;2023-11-22T05:40:44;6.30;99.90
56256;DHT22;57229;51.432;-2.598;2023-11-22T05:43:10;6.30;99.90
56256;DHT22;57229;51.432;-2.598;2023-11-22T05:45:36;6.30;99.90
56256;DHT22;57229;51.432;-2.598;2023-11-22T05:48:02;6.40;99.90
56256;DHT22;57229;51.432;-2.598;2023-11-22T05:50:27;6.40;99.90
56256;DHT22;57229;51.432;-2.598;2023-11-22T05:52:53;6.70;99.90
56256;DHT22;57229;51.432;-2.598;2023-11-22T05:55:18;6.40;99.90
56256;DHT22;57229;51.432;-2.598;2023-11-22T05:57:44;6.50;99.90
56256;DHT22;57229;51.432;-2.598;2023-11-22T06:00:10;6.50;99.90
56256;DHT22;57229;51.432;-2.598;2023-11-22T06:02:36;6.40;99.90
56256;DHT22;57229;51.432;-2.598;2023-11-22T06:05:04;6.40;99.90
56256;DHT22;57229;51.432;-2.598;2023-11-22T06:07:31;6.30;99.90
56256;DHT22;57229;51.432;-2.598;2023-11-22T06:09:56;6.40;99.90
56256;DHT22;57229;51.432;-2.598;2023-11-22T06:12:22;6.40;99.90
56256;DHT22;57229;51.432;-2.598;2023-11-22T06:14:48;6.50;99.90
56256;DHT22;57229;51.432;-2.598;2023-11-22T06:17:14;6.50;99.90
56256;DHT22;57229;51.432;-2.598;2023-11-22T06:19:40;6.50;99.90
56256;DHT22;57229;51.432;-2.598;2023-11-22T06:22:07;6.50;99.90
56256;DHT22;57229;51.432;-2.598;2023-11-22T06:24:33;6.50;99.90
56256;DHT22;57229;51.432;-2.598;2023-11-22T06:26:59;6.80;99.90
56256;DHT22;57229;51.432;-2.598;2023-11-22T06:29:25;6.50;99.90
56256;DHT22;57229;51.432;-2.598;2023-11-22T06:31:51;6.40;99.90
56256;DHT22;57229;51.432;-2.598;2023-11-22T06:34:16;6.50;99.90
56256;DHT22;57229;51.432;-2.598;2023-11-22T06:36:42;7.10;99.90
56256;DHT22;57229;51.432;-2.598;2023-11-22T06:39:08;6.40;99.90
56256;DHT22;57229;51.432;-2.598;2023-11-22T06:41:35;6.60;99.90
56256;DHT22;57229;51.432;-2.598;2023-11-22T06:44:00;6.70;99.90
56256;DHT22;57229;51.432;-2.598;2023-11-22T06:46:26;6.40;99.90
56256;DHT22;57229;51.432;-2.598;2023-11-22T06:48:51;6.30;99.90
56256;DHT22;57229;51.432;-2.598;2023-11-22T06:51:17;6.30;99.90
56256;DHT22;57229;51.432;-2.598;2023-11-22T06:53:44;6.50;99.90
56256;DHT22;57229;51.432;-2.598;2023-11-22T06:56:11;6.30;99.90
56256;DHT22;57229;51.432;-2.598;2023-11-22T06:58:36;6.30;99.90
56256;DHT22;57229;51.432;-2.598;2023-11-22T07:01:02;6.30;99.90
56256;DHT22;57229;51.432;-2.598;2023-11-22T07:03:27;6.30;99.90
56256;DHT22;57229;51.432;-2.598;2023-11-22T07:05:53;6.40;99.90
56256;DHT22;57229;51.432;-2.598;2023-11-22T07:08:19;6.40;99.90
56256;DHT22;57229;51.432;-2.598;2023-11-22T07:10:45;6.40;99.90
56256;DHT22;57229;51.432;-2.598;2023-11-22T07:13:14;6.40;99.90
56256;DHT22;57229;51.432;-2.598;2023-11-22T09:45:59;9.40;99.90
56256;DHT22;57229;51.432;-2.598;2023-11-22T09:48:26;9.80;99.90
56256;DHT22;57229;51.432;-2.598;2023-11-22T09:53:32;9.70;99.90
56256;DHT22;57229;51.432;-2.598;2023-11-22T09:56:00;9.90;99.90
56256;DHT22;57229;51.432;-2.598;2023-11-22T09:58:30;10.20;99.90
56256;DHT22;57229;51.432;-2.598;2023-11-22T10:00:55;9.80;99.90
56256;DHT22;57229;51.432;-2.598;2023-11-22T10:03:22;9.90;99.90
56256;DHT22;57229;51.432;-2.598;2023-11-22T10:05:49;9.90;99.90
56256;DHT22;57229;51.432;-2.598;2023-11-22T10:08:14;9.90;99.90
56256;DHT22;57229;51.432;-2.598;2023-11-22T10:10:42;9.90;99.90
56256;DHT22;57229;51.432;-2.598;2023-11-22T10:13:10;10.00;99.90
56256;DHT22;57229;51.432;-2.598;2023-11-22T10:15:38;10.00;99.90
56256;DHT22;57229;51.432;-2.598;2023-11-22T10:18:03;10.10;99.90
56256;DHT22;57229;51.432;-2.598;2023-11-22T10:20:40;10.10;99.90
56256;DHT22;57229;51.432;-2.598;2023-11-22T10:23:10;10.10;99.90
56256;DHT22;57229;51.432;-2.598;2023-11-22T10:25:50;10.90;99.90
56256;DHT22;57229;51.432;-2.598;2023-11-22T10:28:20;10.20;99.90
56256;DHT22;57229;51.432;-2.598;2023-11-22T10:30:48;10.20;99.90
56256;DHT22;57229;51.432;-2.598;2023-11-22T10:33:15;10.20;99.90
56256;DHT22;57229;51.432;-2.598;2023-11-22T10:35:45;10.50;99.90
56256;DHT22;57229;51.432;-2.598;2023-11-22T10:38:18;10.20;99.90
56256;DHT22;57229;51.432;-2.598;2023-11-22T10:40:44;10.40;99.90
56256;DHT22;57229;51.432;-2.598;2023-11-22T10:43:17;10.50;99.90
56256;DHT22;57229;51.432;-2.598;2023-11-22T10:45:44;10.50;99.90
56256;DHT22;57229;51.432;-2.598;2023-11-22T10:48:14;10.80;99.90
56256;DHT22;57229;51.432;-2.598;2023-11-22T10:50:44;10.60;99.90
56256;DHT22;57229;51.432;-2.598;2023-11-22T10:53:13;10.70;99.90
56256;DHT22;57229;51.432;-2.598;2023-11-22T10:55:48;10.90;99.90
56256;DHT22;57229;51.432;-2.598;2023-11-22T10:58:15;11.30;99.90
56256;DHT22;57229;51.432;-2.598;2023-11-22T11:00:42;10.90;99.90
56256;DHT22;57229;51.432;-2.598;2023-11-22T11:03:13;10.80;99.90
56256;DHT22;57229;51.432;-2.598;2023-11-22T11:05:43;10.80;99.90
56256;DHT22;57229;51.432;-2.598;2023-11-22T11:08:12;10.90;99.90
56256;DHT22;57229;51.432;-2.598;2023-11-22T11:10:43;10.70;99.90
56256;DHT22;57229;51.432;-2.598;2023-11-22T11:13:11;10.70;99.90
56256;DHT22;57229;51.432;-2.598;2023-11-22T11:15:39;10.60;99.90
56256;DHT22;57229;51.432;-2.598;2023-11-22T11:18:16;10.60;99.90
56256;DHT22;57229;51.432;-2.598;2023-11-22T11:20:48;10.70;99.90
56256;DHT22;57229;51.432;-2.598;2023-11-22T11:23:19;10.70;99.90
56256;DHT22;57229;51.432;-2.598;2023-11-22T11:25:49;10.70;99.90
56256;DHT22;57229;51.432;-2.598;2023-11-22T11:28:14;10.70;99.90
56256;DHT22;57229;51.432;-2.598;2023-11-22T11:30:47;10.80;99.90
56256;DHT22;57229;51.432;-2.598;2023-11-22T11:33:15;10.90;99.90
56256;DHT22;57229;51.432;-2.598;2023-11-22T11:35:50;11.00;99.90
56256;DHT22;57229;51.432;-2.598;2023-11-22T11:38:19;11.10;99.90
56256;DHT22;57229;51.432;-2.598;2023-11-22T11:40:48;11.10;99.90
56256;DHT22;57229;51.432;-2.598;2023-11-22T11:43:15;11.10;99.90
56256;DHT22;57229;51.432;-2.598;2023-11-22T11:45:45;11.10;99.90
56256;DHT22;57229;51.432;-2.598;2023-11-22T11:48:13;11.10;99.90
56256;DHT22;57229;51.432;-2.598;2023-11-22T11:50:39;11.20;99.90
56256;DHT22;57229;51.432;-2.598;2023-11-22T11:53:05;11.20;99.90
56256;DHT22;57229;51.432;-2.598;2023-11-22T11:55:31;11.20;99.90
56256;DHT22;57229;51.432;-2.598;2023-11-22T11:57:56;11.20;99.90
56256;DHT22;57229;51.432;-2.598;2023-11-22T12:00:23;11.30;99.90
56256;DHT22;57229;51.432;-2.598;2023-11-22T12:02:54;11.30;99.90
56256;DHT22;57229;51.432;-2.598;2023-11-22T12:05:19;11.40;99.90
56256;DHT22;57229;51.432;-2.598;2023-11-22T12:07:46;11.50;99.90
56256;DHT22;57229;51.432;-2.598;2023-11-22T12:10:12;11.60;99.90
56256;DHT22;57229;51.432;-2.598;2023-11-22T12:12:38;11.80;99.90
56256;DHT22;57229;51.432;-2.598;2023-11-22T12:15:05;12.10;99.90
56256;DHT22;57229;51.432;-2.598;2023-11-22T12:17:32;12.40;99.90
56256;DHT22;57229;51.432;-2.598;2023-11-22T12:20:11;12.40;99.90
56256;DHT22;57229;51.432;-2.598;2023-11-22T12:22:39;12.50;99.90
56256;DHT22;57229;51.432;-2.598;2023-11-22T12:25:06;12.50;99.90
56256;DHT22;57229;51.432;-2.598;2023-11-22T12:27:32;12.20;99.90
56256;DHT22;57229;51.432;-2.598;2023-11-22T12:29:58;12.20;99.90
56256;DHT22;57229;51.432;-2.598;2023-11-22T12:32:27;12.60;99.90
56256;DHT22;57229;51.432;-2.598;2023-11-22T12:34:54;12.20;99.90
56256;DHT22;57229;51.432;-2.598;2023-11-22T12:37:23;12.20;99.90
56256;DHT22;57229;51.432;-2.598;2023-11-22T12:39:50;12.30;99.90
56256;DHT22;57229;51.432;-2.598;2023-11-22T12:42:17;12.20;99.90
56256;DHT22;57229;51.432;-2.598;2023-11-22T12:44:50;12.10;99.90
56256;DHT22;57229;51.432;-2.598;2023-11-22T12:47:38;12.10;99.90
56256;DHT22;57229;51.432;-2.598;2023-11-22T12:50:04;12.10;99.90
56256;DHT22;57229;51.432;-2.598;2023-11-22T12:52:29;12.10;99.90
56256;DHT22;57229;51.432;-2.598;2023-11-22T12:54:58;12.10;99.90
56256;DHT22;57229;51.432;-2.598;2023-11-22T12:57:24;12.00;99.90
56256;DHT22;57229;51.432;-2.598;2023-11-22T12:59:50;12.00;99.90
56256;DHT22;57229;51.432;-2.598;2023-11-22T13:02:15;12.00;99.90
56256;DHT22;57229;51.432;-2.598;2023-11-22T13:04:42;12.40;99.90
56256;DHT22;57229;51.432;-2.598;2023-11-22T13:07:08;12.00;99.90
56256;DHT22;57229;51.432;-2.598;2023-11-22T13:09:34;11.90;99.90
56256;DHT22;57229;51.432;-2.598;2023-11-22T13:12:01;12.00;99.90
56256;DHT22;57229;51.432;-2.598;2023-11-22T13:14:27;11.90;99.90
56256;DHT22;57229;51.432;-2.598;2023-11-22T13:16:57;11.90;99.90
56256;DHT22;57229;51.432;-2.598;2023-11-22T13:19:23;11.90;99.90
56256;DHT22;57229;51.432;-2.598;2023-11-22T13:21:50;12.10;99.90
56256;DHT22;57229;51.432;-2.598;2023-11-22T13:24:15;12.10;99.90
56256;DHT22;57229;51.432;-2.598;2023-11-22T13:26:43;12.20;99.90
56256;DHT22;57229;51.432;-2.598;2023-11-22T13:29:09;12.40;99.90
56256;DHT22;57229;51.432;-2.598;2023-11-22T13:31:34;12.30;99.90
56256;DHT22;57229;51.432;-2.598;2023-11-22T13:34:00;12.30;99.90
56256;DHT22;57229;51.432;-2.598;2023-11-22T13:36:25;12.30;99.90
56256;DHT22;57229;51.432;-2.598;2023-11-22T13:38:51;12.20;99.90
56256;DHT22;57229;51.432;-2.598;2023-11-22T13:41:17;12.10;99.90
56256;DHT22;57229;51.432;-2.598;2023-11-22T13:43:43;12.00;99.90
56256;DHT22;57229;51.432;-2.598;2023-11-22T13:46:08;12.00;99.90
56256;DHT22;57229;51.432;-2.598;2023-11-22T13:48:37;12.00;99.90
56256;DHT22;57229;51.432;-2.598;2023-11-22T13:51:03;12.00;99.90
56256;DHT22;57229;51.432;-2.598;2023-11-22T13:53:29;12.00;99.90
56256;DHT22;57229;51.432;-2.598;2023-11-22T13:55:59;12.00;99.90
56256;DHT22;57229;51.432;-2.598;2023-11-22T13:58:26;12.00;99.90
56256;DHT22;57229;51.432;-2.598;2023-11-22T14:00:52;11.90;99.90
56256;DHT22;57229;51.432;-2.598;2023-11-22T14:03:19;12.10;99.90
56256;DHT22;57229;51.432;-2.598;2023-11-22T14:05:47;11.90;99.90
56256;DHT22;57229;51.432;-2.598;2023-11-22T14:08:13;11.90;99.90
56256;DHT22;57229;51.432;-2.598;2023-11-22T14:10:40;11.90;99.90
56256;DHT22;57229;51.432;-2.598;2023-11-22T14:13:06;11.90;99.90
56256;DHT22;57229;51.432;-2.598;2023-11-22T14:15:34;11.90;99.90
56256;DHT22;57229;51.432;-2.598;2023-11-22T14:17:59;11.90;99.90
56256;DHT22;57229;51.432;-2.598;2023-11-22T14:20:25;11.90;99.90
56256;DHT22;57229;51.432;-2.598;2023-11-22T14:22:51;12.00;99.90
56256;DHT22;57229;51.432;-2.598;2023-11-22T14:25:18;12.10;99.90
56256;DHT22;57229;51.432;-2.598;2023-11-22T14:27:45;11.90;99.90
56256;DHT22;57229;51.432;-2.598;2023-11-22T14:30:12;11.90;99.90
56256;DHT22;57229;51.432;-2.598;2023-11-22T14:32:42;11.90;99.90
56256;DHT22;57229;51.432;-2.598;2023-11-22T14:35:09;12.90;99.90
56256;DHT22;57229;51.432;-2.598;2023-11-22T14:37:35;12.00;99.90
56256;DHT22;57229;51.432;-2.598;2023-11-22T14:40:05;12.00;99.90
56256;DHT22;57229;51.432;-2.598;2023-11-22T14:42:41;12.00;99.90
56256;DHT22;57229;51.432;-2.598;2023-11-22T14:45:08;12.10;99.90
56256;DHT22;57229;51.432;-2.598;2023-11-22T14:47:34;12.10;99.90
56256;DHT22;57229;51.432;-2.598;2023-11-22T14:50:02;12.20;99.90
56256;DHT22;57229;51.432;-2.598;2023-11-22T14:52:30;12.80;99.90
56256;DHT22;57229;51.432;-2.598;2023-11-22T14:54:56;12.30;99.90
56256;DHT22;57229;51.432;-2.598;2023-11-22T14:57:25;12.30;99.90
56256;DHT22;57229;51.432;-2.598;2023-11-22T14:59:51;12.20;99.90
56256;DHT22;57229;51.432;-2.598;2023-11-22T15:02:17;12.10;99.90
56256;DHT22;57229;51.432;-2.598;2023-11-22T15:04:44;12.10;99.90
56256;DHT22;57229;51.432;-2.598;2023-11-22T15:07:09;12.00;99.90
56256;DHT22;57229;51.432;-2.598;2023-11-22T15:09:37;12.10;99.90
56256;DHT22;57229;51.432;-2.598;2023-11-22T15:12:03;11.90;99.90
56256;DHT22;57229;51.432;-2.598;2023-11-22T15:14:33;11.90;99.90
56256;DHT22;57229;51.432;-2.598;2023-11-22T15:16:59;11.90;99.90
56256;DHT22;57229;51.432;-2.598;2023-11-22T15:19:30;11.90;99.90
56256;DHT22;57229;51.432;-2.598;2023-11-22T15:21:56;11.90;99.90
56256;DHT22;57229;51.432;-2.598;2023-11-22T15:24:22;11.90;99.90
56256;DHT22;57229;51.432;-2.598;2023-11-22T15:26:48;12.70;99.90
56256;DHT22;57229;51.432;-2.598;2023-11-22T15:29:13;11.80;99.90
56256;DHT22;57229;51.432;-2.598;2023-11-22T15:31:43;11.80;99.90
56256;DHT22;57229;51.432;-2.598;2023-11-22T15:34:09;11.80;99.90
56256;DHT22;57229;51.432;-2.598;2023-11-22T15:36:35;11.80;99.90
56256;DHT22;57229;51.432;-2.598;2023-11-22T15:39:01;11.80;99.90
56256;DHT22;57229;51.432;-2.598;2023-11-22T15:41:27;11.70;99.90
56256;DHT22;57229;51.432;-2.598;2023-11-22T15:43:53;11.80;99.90
56256;DHT22;57229;51.432;-2.598;2023-11-22T15:46:19;11.70;99.90
56256;DHT22;57229;51.432;-2.598;2023-11-22T15:48:50;11.70;99.90
56256;DHT22;57229;51.432;-2.598;2023-11-22T15:51:15;11.70;99.90
56256;DHT22;57229;51.432;-2.598;2023-11-22T15:53:42;11.60;99.90
56256;DHT22;57229;51.432;-2.598;2023-11-22T15:56:07;11.60;99.90
56256;DHT22;57229;51.432;-2.598;2023-11-22T15:58:46;11.50;99.90
56256;DHT22;57229;51.432;-2.598;2023-11-22T16:01:12;11.40;99.90
56256;DHT22;57229;51.432;-2.598;2023-11-22T16:03:38;11.40;99.90
56256;DHT22;57229;51.432;-2.598;2023-11-22T16:06:05;11.40;99.90
56256;DHT22;57229;51.432;-2.598;2023-11-22T16:08:31;11.30;99.90
56256;DHT22;57229;51.432;-2.598;2023-11-22T16:10:58;11.90;99.90
56256;DHT22;57229;51.432;-2.598;2023-11-22T16:13:24;11.20;99.90
56256;DHT22;57229;51.432;-2.598;2023-11-22T16:15:52;11.20;99.90
56256;DHT22;57229;51.432;-2.598;2023-11-22T16:18:19;11.20;99.90
56256;DHT22;57229;51.432;-2.598;2023-11-22T16:20:48;11.20;99.90
56256;DHT22;57229;51.432;-2.598;2023-11-22T16:23:14;11.20;99.90
56256;DHT22;57229;51.432;-2.598;2023-11-22T16:25:39;11.20;99.90
56256;DHT22;57229;51.432;-2.598;2023-11-22T16:28:06;11.20;99.90
56256;DHT22;57229;51.432;-2.598;2023-11-22T16:30:32;12.20;99.90
56256;DHT22;57229;51.432;-2.598;2023-11-22T16:32:58;11.30;99.90
56256;DHT22;57229;51.432;-2.598;2023-11-22T16:35:23;11.20;99.90
56256;DHT22;57229;51.432;-2.598;2023-11-22T16:37:50;11.30;99.90
56256;DHT22;57229;51.432;-2.598;2023-11-22T16:40:16;11.30;99.90
56256;DHT22;57229;51.432;-2.598;2023-11-22T16:42:41;11.30;99.90
56256;DHT22;57229;51.432;-2.598;2023-11-22T16:45:09;11.30;99.90
56256;DHT22;57229;51.432;-2.598;2023-11-22T16:47:49;11.20;99.90
56256;DHT22;57229;51.432;-2.598;2023-11-22T16:50:26;11.20;99.90
56256;DHT22;57229;51.432;-2.598;2023-11-22T16:52:51;11.30;99.90
56256;DHT22;57229;51.432;-2.598;2023-11-22T16:55:30;11.30;99.90
56256;DHT22;57229;51.432;-2.598;2023-11-22T16:57:56;11.20;99.90
56256;DHT22;57229;51.432;-2.598;2023-11-22T17:00:24;11.30;99.90
56256;DHT22;57229;51.432;-2.598;2023-11-22T17:02:50;11.20;99.90
56256;DHT22;57229;51.432;-2.598;2023-11-22T17:05:18;11.20;99.90
56256;DHT22;57229;51.432;-2.598;2023-11-22T17:07:44;11.20;99.90
56256;DHT22;57229;51.432;-2.598;2023-11-22T17:10:10;11.20;99.90
56256;DHT22;57229;51.432;-2.598;2023-11-22T17:12:39;11.20;99.90
56256;DHT22;57229;51.432;-2.598;2023-11-22T17:15:08;11.20;99.90
56256;DHT22;57229;51.432;-2.598;2023-11-22T17:17:34;11.30;99.90
56256;DHT22;57229;51.432;-2.598;2023-11-22T17:20:01;11.20;99.90
56256;DHT22;57229;51.432;-2.598;2023-11-22T17:22:30;11.20;99.90
56256;DHT22;57229;51.432;-2.598;2023-11-22T17:25:11;11.20;99.90
56256;DHT22;57229;51.432;-2.598;2023-11-22T17:27:56;11.20;99.90
56256;DHT22;57229;51.432;-2.598;2023-11-22T17:30:22;11.10;99.90
56256;DHT22;57229;51.432;-2.598;2023-11-22T17:33:21;11.10;99.90
56256;DHT22;57229;51.432;-2.598;2023-11-22T17:35:50;11.30;99.90
56256;DHT22;57229;51.432;-2.598;2023-11-22T17:38:29;11.10;99.90
56256;DHT22;57229;51.432;-2.598;2023-11-22T17:41:07;10.80;99.90
56256;DHT22;57229;51.432;-2.598;2023-11-22T17:43:34;11.00;99.90
56256;DHT22;57229;51.432;-2.598;2023-11-22T17:47:21;11.00;99.90
56256;DHT22;57229;51.432;-2.598;2023-11-22T17:49:28;10.90;99.90
56256;DHT22;57229;51.432;-2.598;2023-11-22T17:52:03;10.80;99.90
56256;DHT22;57229;51.432;-2.598;2023-11-22T17:54:47;10.80;99.90
56256;DHT22;57229;51.432;-2.598;2023-11-22T17:57:14;10.80;99.90